sensor_id;sensor_type;location;lat;lon;timestamp;pressure;altitude;pressure_sealevel;temperature
13304;BMP280;6720;51.958;4.540;2023-03-02T00:00:45;102421.97;;;3.64
13304;BMP280;6720;51.958;4.540;2023-03-02T00:03:12;102418.94;;;3.76
13304;BMP280;6720;51.958;4.540;2023-03-02T00:05:39;102420.59;;;3.74
13304;BMP280;6720;51.958;4.540;2023-03-02T00:08:06;102417.78;;;3.68
13304;BMP280;6720;51.958;4.540;2023-03-02T00:10:33;102419.50;;;3.67
13304;BMP280;6720;51.958;4.540;2023-03-02T00:12:58;102420.38;;;3.68
13304;BMP280;6720;51.958;4.540;2023-03-02T00:15:24;102418.59;;;3.67
13304;BMP280;6720;51.958;4.540;2023-03-02T00:17:49;102414.44;;;3.70
13304;BMP280;6720;51.958;4.540;2023-03-02T00:20:15;102414.03;;;3.60
13304;BMP280;6720;51.958;4.540;2023-03-02T00:22:42;102414.31;;;3.67
13304;BMP280;6720;51.958;4.540;2023-03-02T00:25:09;102414.31;;;3.67
13304;BMP280;6720;51.958;4.540;2023-03-02T00:27:35;102389.69;;;3.55
13304;BMP280;6720;51.958;4.540;2023-03-02T00:30:00;102408.03;;;3.61
13304;BMP280;6720;51.958;4.540;2023-03-02T00:32:26;102405.44;;;3.61
13304;BMP280;6720;51.958;4.540;2023-03-02T00:34:51;102404.84;;;3.68
13304;BMP280;6720;51.958;4.540;2023-03-02T00:37:17;102390.56;;;3.55
13304;BMP280;6720;51.958;4.540;2023-03-02T00:39:42;102395.16;;;3.62
13304;BMP280;6720;51.958;4.540;2023-03-02T00:42:08;102381.53;;;3.68
13304;BMP280;6720;51.958;4.540;2023-03-02T00:44:33;102394.69;;;3.74
13304;BMP280;6720;51.958;4.540;2023-03-02T00:46:59;102388.47;;;3.69
13304;BMP280;6720;51.958;4.540;2023-03-02T00:49:24;102386.97;;;3.75
13304;BMP280;6720;51.958;4.540;2023-03-02T00:51:50;102382.75;;;3.77
13304;BMP280;6720;51.958;4.540;2023-03-02T00:54:15;102389.56;;;3.75
13304;BMP280;6720;51.958;4.540;2023-03-02T00:56:41;102381.63;;;3.71
13304;BMP280;6720;51.958;4.540;2023-03-02T00:59:09;102384.06;;;3.66
13304;BMP280;6720;51.958;4.540;2023-03-02T01:01:51;102369.09;;;3.58
13304;BMP280;6720;51.958;4.540;2023-03-02T01:04:33;102378.13;;;3.69
13304;BMP280;6720;51.958;4.540;2023-03-02T01:07:01;102385.75;;;3.66
13304;BMP280;6720;51.958;4.540;2023-03-02T01:09:28;102377.69;;;3.57
13304;BMP280;6720;51.958;4.540;2023-03-02T01:11:53;102386.53;;;3.63
13304;BMP280;6720;51.958;4.540;2023-03-02T01:14:19;102385.53;;;3.60
13304;BMP280;6720;51.958;4.540;2023-03-02T01:16:45;102383.59;;;3.53
13304;BMP280;6720;51.958;4.540;2023-03-02T01:19:14;102386.06;;;3.50
13304;BMP280;6720;51.958;4.540;2023-03-02T01:21:41;102386.91;;;3.50
13304;BMP280;6720;51.958;4.540;2023-03-02T01:24:07;102387.69;;;3.48
13304;BMP280;6720;51.958;4.540;2023-03-02T01:26:33;102387.53;;;3.43
13304;BMP280;6720;51.958;4.540;2023-03-02T01:28:58;102391.00;;;3.44
13304;BMP280;6720;51.958;4.540;2023-03-02T01:31:25;102391.72;;;3.40
13304;BMP280;6720;51.958;4.540;2023-03-02T01:33:51;102394.47;;;3.44
13304;BMP280;6720;51.958;4.540;2023-03-02T01:36:17;102394.28;;;3.40
13304;BMP280;6720;51.958;4.540;2023-03-02T01:38:42;102386.72;;;3.44
13304;BMP280;6720;51.958;4.540;2023-03-02T01:41:08;102381.94;;;3.33
13304;BMP280;6720;51.958;4.540;2023-03-02T01:43:34;102383.09;;;3.39
13304;BMP280;6720;51.958;4.540;2023-03-02T01:46:02;102385.69;;;3.41
13304;BMP280;6720;51.958;4.540;2023-03-02T01:48:37;102383.81;;;3.37
13304;BMP280;6720;51.958;4.540;2023-03-02T01:51:04;102371.72;;;3.36
13304;BMP280;6720;51.958;4.540;2023-03-02T01:53:31;102376.13;;;3.38
13304;BMP280;6720;51.958;4.540;2023-03-02T01:55:59;102384.06;;;3.43
13304;BMP280;6720;51.958;4.540;2023-03-02T01:58:27;102363.69;;;3.28
13304;BMP280;6720;51.958;4.540;2023-03-02T02:00:55;102372.31;;;3.29
13304;BMP280;6720;51.958;4.540;2023-03-02T02:03:24;102370.75;;;3.32
13304;BMP280;6720;51.958;4.540;2023-03-02T02:06:00;102368.22;;;3.34
13304;BMP280;6720;51.958;4.540;2023-03-02T02:08:27;102370.50;;;3.26
13304;BMP280;6720;51.958;4.540;2023-03-02T02:10:53;102370.38;;;3.23
13304;BMP280;6720;51.958;4.540;2023-03-02T02:13:19;102367.97;;;3.28
13304;BMP280;6720;51.958;4.540;2023-03-02T02:15:44;102370.81;;;3.34
13304;BMP280;6720;51.958;4.540;2023-03-02T02:18:10;102366.34;;;3.31
13304;BMP280;6720;51.958;4.540;2023-03-02T02:28:39;102356.47;;;3.20
13304;BMP280;6720;51.958;4.540;2023-03-02T02:31:06;102350.13;;;3.12
13304;BMP280;6720;51.958;4.540;2023-03-02T02:33:34;102335.91;;;3.01
13304;BMP280;6720;51.958;4.540;2023-03-02T02:36:04;102346.81;;;3.16
13304;BMP280;6720;51.958;4.540;2023-03-02T02:38:31;102347.69;;;3.16
13304;BMP280;6720;51.958;4.540;2023-03-02T02:41:00;102345.06;;;3.15
13304;BMP280;6720;51.958;4.540;2023-03-02T02:43:29;102349.47;;;3.17
13304;BMP280;6720;51.958;4.540;2023-03-02T02:45:56;102344.00;;;3.10
13304;BMP280;6720;51.958;4.540;2023-03-02T02:48:23;102344.00;;;3.10
13304;BMP280;6720;51.958;4.540;2023-03-02T02:50:51;102329.06;;;3.03
13304;BMP280;6720;51.958;4.540;2023-03-02T02:53:28;102338.00;;;3.11
13304;BMP280;6720;51.958;4.540;2023-03-02T02:55:55;102336.34;;;3.13
13304;BMP280;6720;51.958;4.540;2023-03-02T02:58:39;102339.97;;;3.18
13304;BMP280;6720;51.958;4.540;2023-03-02T03:01:06;102340.69;;;3.14
13304;BMP280;6720;51.958;4.540;2023-03-02T03:03:37;102341.41;;;3.10
13304;BMP280;6720;51.958;4.540;2023-03-02T03:06:07;102337.19;;;3.12
13304;BMP280;6720;51.958;4.540;2023-03-02T03:11:11;102332.06;;;3.13
13304;BMP280;6720;51.958;4.540;2023-03-02T03:13:38;102313.47;;;3.00
13304;BMP280;6720;51.958;4.540;2023-03-02T03:16:05;102325.06;;;3.11
13304;BMP280;6720;51.958;4.540;2023-03-02T03:18:32;102333.13;;;3.18
13304;BMP280;6720;51.958;4.540;2023-03-02T03:20:57;102328.72;;;3.16
13304;BMP280;6720;51.958;4.540;2023-03-02T03:23:23;102327.63;;;3.11
13304;BMP280;6720;51.958;4.540;2023-03-02T03:25:49;102328.59;;;3.13
13304;BMP280;6720;51.958;4.540;2023-03-02T03:28:14;102329.44;;;3.12
13304;BMP280;6720;51.958;4.540;2023-03-02T03:30:40;102325.69;;;3.04
13304;BMP280;6720;51.958;4.540;2023-03-02T03:33:06;102330.84;;;3.04
13304;BMP280;6720;51.958;4.540;2023-03-02T03:35:38;102331.06;;;3.10
13304;BMP280;6720;51.958;4.540;2023-03-02T03:38:05;102326.72;;;3.09
13304;BMP280;6720;51.958;4.540;2023-03-02T03:40:31;102327.31;;;3.02
13304;BMP280;6720;51.958;4.540;2023-03-02T03:43:00;102323.25;;;3.08
13304;BMP280;6720;51.958;4.540;2023-03-02T03:45:26;102326.59;;;3.06
13304;BMP280;6720;51.958;4.540;2023-03-02T03:47:51;102329.31;;;3.09
13304;BMP280;6720;51.958;4.540;2023-03-02T03:50:16;102320.59;;;3.07
13304;BMP280;6720;51.958;4.540;2023-03-02T03:52:42;102325.22;;;3.15
13304;BMP280;6720;51.958;4.540;2023-03-02T03:55:08;102314.44;;;3.03
13304;BMP280;6720;51.958;4.540;2023-03-02T03:57:34;102324.78;;;3.03
13304;BMP280;6720;51.958;4.540;2023-03-02T03:59:59;102329.19;;;3.06
13304;BMP280;6720;51.958;4.540;2023-03-02T04:02:24;102332.38;;;2.99
13304;BMP280;6720;51.958;4.540;2023-03-02T04:04:50;102324.47;;;2.96
13304;BMP280;6720;51.958;4.540;2023-03-02T04:07:15;102335.19;;;3.05
13304;BMP280;6720;51.958;4.540;2023-03-02T04:10:03;102335.31;;;3.08
13304;BMP280;6720;51.958;4.540;2023-03-02T04:13:05;102333.53;;;3.07
13304;BMP280;6720;51.958;4.540;2023-03-02T04:16:07;102330.03;;;3.05
13304;BMP280;6720;51.958;4.540;2023-03-02T04:19:09;102339.53;;;3.06
13304;BMP280;6720;51.958;4.540;2023-03-02T04:22:09;102344.50;;;3.00
13304;BMP280;6720;51.958;4.540;2023-03-02T04:24:59;102341.09;;;3.01
13304;BMP280;6720;51.958;4.540;2023-03-02T04:27:25;102341.09;;;3.01
13304;BMP280;6720;51.958;4.540;2023-03-02T04:29:50;102335.53;;;2.92
13304;BMP280;6720;51.958;4.540;2023-03-02T04:32:17;102345.25;;;2.97
13304;BMP280;6720;51.958;4.540;2023-03-02T04:34:43;102345.53;;;3.05
13304;BMP280;6720;51.958;4.540;2023-03-02T04:37:09;102342.84;;;3.02
13304;BMP280;6720;51.958;4.540;2023-03-02T04:39:34;102347.13;;;3.01
13304;BMP280;6720;51.958;4.540;2023-03-02T04:42:00;102346.00;;;2.95
13304;BMP280;6720;51.958;4.540;2023-03-02T04:44:26;102338.38;;;2.98
13304;BMP280;6720;51.958;4.540;2023-03-02T04:46:51;102341.09;;;3.01
13304;BMP280;6720;51.958;4.540;2023-03-02T04:49:18;102332.50;;;3.02
13304;BMP280;6720;51.958;4.540;2023-03-02T04:51:46;102327.31;;;3.02
13304;BMP280;6720;51.958;4.540;2023-03-02T04:54:19;102308.56;;;2.85
13304;BMP280;6720;51.958;4.540;2023-03-02T04:56:45;102326.03;;;2.91
13304;BMP280;6720;51.958;4.540;2023-03-02T04:59:16;102332.16;;;2.93
13304;BMP280;6720;51.958;4.540;2023-03-02T05:01:41;102330.44;;;2.93
13304;BMP280;6720;51.958;4.540;2023-03-02T05:04:08;102317.94;;;2.82
13304;BMP280;6720;51.958;4.540;2023-03-02T05:06:34;102328.63;;;2.91
13304;BMP280;6720;51.958;4.540;2023-03-02T05:08:59;102334.69;;;2.91
13304;BMP280;6720;51.958;4.540;2023-03-02T05:11:24;102332.88;;;2.89
13304;BMP280;6720;51.958;4.540;2023-03-02T05:13:52;102332.03;;;2.90
13304;BMP280;6720;51.958;4.540;2023-03-02T05:16:19;102319.81;;;2.86
13304;BMP280;6720;51.958;4.540;2023-03-02T05:18:46;102327.97;;;2.96
13304;BMP280;6720;51.958;4.540;2023-03-02T05:21:12;102307.47;;;2.79
13304;BMP280;6720;51.958;4.540;2023-03-02T05:23:39;102325.19;;;2.92
13304;BMP280;6720;51.958;4.540;2023-03-02T05:26:04;102325.06;;;2.87
13304;BMP280;6720;51.958;4.540;2023-03-02T05:28:30;102304.88;;;2.79
13304;BMP280;6720;51.958;4.540;2023-03-02T05:30:55;102318.16;;;2.88
13304;BMP280;6720;51.958;4.540;2023-03-02T05:33:20;102313.88;;;2.88
13304;BMP280;6720;51.958;4.540;2023-03-02T05:35:47;102303.94;;;2.77
13304;BMP280;6720;51.958;4.540;2023-03-02T05:38:12;102317.81;;;2.79
13304;BMP280;6720;51.958;4.540;2023-03-02T05:40:38;102304.69;;;2.74
13304;BMP280;6720;51.958;4.540;2023-03-02T05:43:04;102295.78;;;2.66
13304;BMP280;6720;51.958;4.540;2023-03-02T05:45:32;102314.06;;;2.71
13304;BMP280;6720;51.958;4.540;2023-03-02T05:47:58;102312.31;;;2.70
13304;BMP280;6720;51.958;4.540;2023-03-02T05:50:23;102323.34;;;2.66
13304;BMP280;6720;51.958;4.540;2023-03-02T05:52:49;102332.03;;;2.68
13304;BMP280;6720;51.958;4.540;2023-03-02T05:55:15;102325.94;;;2.66
13304;BMP280;6720;51.958;4.540;2023-03-02T05:57:41;102328.28;;;2.60
13304;BMP280;6720;51.958;4.540;2023-03-02T06:00:07;102335.25;;;2.62
13304;BMP280;6720;51.958;4.540;2023-03-02T06:02:34;102336.97;;;2.62
13304;BMP280;6720;51.958;4.540;2023-03-02T06:04:59;102319.34;;;2.52
13304;BMP280;6720;51.958;4.540;2023-03-02T06:07:25;102334.34;;;2.60
13304;BMP280;6720;51.958;4.540;2023-03-02T06:09:51;102342.84;;;2.58
13304;BMP280;6720;51.958;4.540;2023-03-02T06:12:17;102342.13;;;2.62
13304;BMP280;6720;51.958;4.540;2023-03-02T06:14:42;102340.09;;;2.53
13304;BMP280;6720;51.958;4.540;2023-03-02T06:17:08;102343.78;;;2.60
13304;BMP280;6720;51.958;4.540;2023-03-02T06:19:33;102338.50;;;2.57
13304;BMP280;6720;51.958;4.540;2023-03-02T06:21:59;102348.91;;;2.58
13304;BMP280;6720;51.958;4.540;2023-03-02T06:24:25;102349.66;;;2.56
13304;BMP280;6720;51.958;4.540;2023-03-02T06:26:52;102356.84;;;2.63
13304;BMP280;6720;51.958;4.540;2023-03-02T06:29:17;102353.56;;;2.67
13304;BMP280;6720;51.958;4.540;2023-03-02T06:31:43;102352.19;;;2.54
13304;BMP280;6720;51.958;4.540;2023-03-02T06:34:08;102365.31;;;2.59
13304;BMP280;6720;51.958;4.540;2023-03-02T06:36:33;102354.56;;;2.50
13304;BMP280;6720;51.958;4.540;2023-03-02T06:39:03;102360.13;;;2.59
13304;BMP280;6720;51.958;4.540;2023-03-02T06:41:29;102356.84;;;2.63
13304;BMP280;6720;51.958;4.540;2023-03-02T06:43:55;102363.19;;;2.71
13304;BMP280;6720;51.958;4.540;2023-03-02T06:46:20;102371.66;;;2.67
13304;BMP280;6720;51.958;4.540;2023-03-02T06:48:45;102363.75;;;2.64
13304;BMP280;6720;51.958;4.540;2023-03-02T06:51:11;102371.94;;;2.74
13304;BMP280;6720;51.958;4.540;2023-03-02T06:53:36;102368.41;;;2.72
13304;BMP280;6720;51.958;4.540;2023-03-02T06:56:02;102375.34;;;2.73
13304;BMP280;6720;51.958;4.540;2023-03-02T06:58:28;102366.69;;;2.73
13304;BMP280;6720;51.958;4.540;2023-03-02T07:00:53;102371.81;;;2.71
13304;BMP280;6720;51.958;4.540;2023-03-02T07:03:19;102370.44;;;2.79
13304;BMP280;6720;51.958;4.540;2023-03-02T07:05:44;102365.25;;;2.79
13304;BMP280;6720;51.958;4.540;2023-03-02T07:08:10;102362.94;;;2.87
13304;BMP280;6720;51.958;4.540;2023-03-02T07:10:36;102368.31;;;2.91
13304;BMP280;6720;51.958;4.540;2023-03-02T07:13:02;102368.38;;;2.93
13304;BMP280;6720;51.958;4.540;2023-03-02T07:15:28;102361.31;;;2.89
13304;BMP280;6720;51.958;4.540;2023-03-02T07:17:53;102371.16;;;2.99
13304;BMP280;6720;51.958;4.540;2023-03-02T07:20:19;102376.41;;;3.00
13304;BMP280;6720;51.958;4.540;2023-03-02T07:22:44;102361.34;;;3.12
13304;BMP280;6720;51.958;4.540;2023-03-02T07:25:12;102372.16;;;3.24
13304;BMP280;6720;51.958;4.540;2023-03-02T07:27:38;102377.19;;;3.43
13304;BMP280;6720;51.958;4.540;2023-03-02T07:30:05;102372.16;;;3.48
13304;BMP280;6720;51.958;4.540;2023-03-02T07:32:30;102357.75;;;3.54
13304;BMP280;6720;51.958;4.540;2023-03-02T07:34:56;102371.78;;;3.61
13304;BMP280;6720;51.958;4.540;2023-03-02T07:37:21;102378.31;;;3.75
13304;BMP280;6720;51.958;4.540;2023-03-02T07:39:47;102378.53;;;3.81
13304;BMP280;6720;51.958;4.540;2023-03-02T07:42:14;102376.13;;;3.85
13304;BMP280;6720;51.958;4.540;2023-03-02T07:44:40;102367.09;;;3.74
13304;BMP280;6720;51.958;4.540;2023-03-02T07:47:05;102370.25;;;3.91
13304;BMP280;6720;51.958;4.540;2023-03-02T07:49:30;102376.25;;;3.90
13304;BMP280;6720;51.958;4.540;2023-03-02T07:51:56;102374.19;;;3.80
13304;BMP280;6720;51.958;4.540;2023-03-02T07:54:21;102367.34;;;3.82
13304;BMP280;6720;51.958;4.540;2023-03-02T07:56:50;102370.53;;;3.75
13304;BMP280;6720;51.958;4.540;2023-03-02T07:59:16;102383.22;;;3.67
13304;BMP280;6720;51.958;4.540;2023-03-02T08:01:41;102377.03;;;3.62
13304;BMP280;6720;51.958;4.540;2023-03-02T08:04:07;102362.16;;;3.57
13304;BMP280;6720;51.958;4.540;2023-03-02T08:06:32;102382.94;;;3.60
13304;BMP280;6720;51.958;4.540;2023-03-02T08:08:58;102380.75;;;3.70
13304;BMP280;6720;51.958;4.540;2023-03-02T08:11:25;102371.50;;;3.77
13304;BMP280;6720;51.958;4.540;2023-03-02T08:13:50;102370.94;;;3.85
13304;BMP280;6720;51.958;4.540;2023-03-02T08:16:16;102359.25;;;3.73
13304;BMP280;6720;51.958;4.540;2023-03-02T08:18:42;102374.38;;;3.86
13304;BMP280;6720;51.958;4.540;2023-03-02T08:21:21;102371.91;;;3.89
13304;BMP280;6720;51.958;4.540;2023-03-02T08:23:47;102365.28;;;3.97
13304;BMP280;6720;51.958;4.540;2023-03-02T08:26:13;102372.75;;;4.13
13304;BMP280;6720;51.958;4.540;2023-03-02T08:28:38;102380.19;;;4.29
13304;BMP280;6720;51.958;4.540;2023-03-02T08:31:05;102378.75;;;4.37
13304;BMP280;6720;51.958;4.540;2023-03-02T08:33:31;102359.97;;;4.19
13304;BMP280;6720;51.958;4.540;2023-03-02T08:36:09;102382.06;;;4.33
13304;BMP280;6720;51.958;4.540;2023-03-02T08:38:35;102365.63;;;4.33
13304;BMP280;6720;51.958;4.540;2023-03-02T08:41:03;102370.00;;;4.35
13304;BMP280;6720;51.958;4.540;2023-03-02T08:43:28;102376.00;;;4.59
13304;BMP280;6720;51.958;4.540;2023-03-02T08:45:55;102376.50;;;4.74
13304;BMP280;6720;51.958;4.540;2023-03-02T08:48:22;102349.91;;;4.55
13304;BMP280;6720;51.958;4.540;2023-03-02T08:51:06;102368.84;;;4.52
13304;BMP280;6720;51.958;4.540;2023-03-02T08:53:34;102367.09;;;4.51
13304;BMP280;6720;51.958;4.540;2023-03-02T08:56:00;102337.47;;;4.43
13304;BMP280;6720;51.958;4.540;2023-03-02T08:58:25;102359.97;;;4.72
13304;BMP280;6720;51.958;4.540;2023-03-02T09:00:51;102368.22;;;4.87
13304;BMP280;6720;51.958;4.540;2023-03-02T09:03:16;102363.44;;;5.01
13304;BMP280;6720;51.958;4.540;2023-03-02T09:05:42;102363.84;;;5.14
13304;BMP280;6720;51.958;4.540;2023-03-02T09:08:08;102363.03;;;5.15
13304;BMP280;6720;51.958;4.540;2023-03-02T09:10:33;102357.75;;;5.12
13304;BMP280;6720;51.958;4.540;2023-03-02T09:12:59;102369.78;;;5.38
13304;BMP280;6720;51.958;4.540;2023-03-02T09:15:25;102374.31;;;5.45
13304;BMP280;6720;51.958;4.540;2023-03-02T09:17:50;102368.47;;;5.83
13304;BMP280;6720;51.958;4.540;2023-03-02T09:20:16;102365.25;;;5.93
13304;BMP280;6720;51.958;4.540;2023-03-02T09:22:41;102366.50;;;6.07
13304;BMP280;6720;51.958;4.540;2023-03-02T09:25:13;102360.19;;;6.32
13304;BMP280;6720;51.958;4.540;2023-03-02T09:27:38;102369.09;;;6.41
13304;BMP280;6720;51.958;4.540;2023-03-02T09:30:04;102348.81;;;6.27
13304;BMP280;6720;51.958;4.540;2023-03-02T09:32:30;102347.25;;;6.70
13304;BMP280;6720;51.958;4.540;2023-03-02T09:34:56;102361.34;;;7.20
13304;BMP280;6720;51.958;4.540;2023-03-02T09:37:21;102365.38;;;7.46
13304;BMP280;6720;51.958;4.540;2023-03-02T09:39:46;102366.09;;;7.37
13304;BMP280;6720;51.958;4.540;2023-03-02T09:45:12;102372.22;;;7.83
13304;BMP280;6720;51.958;4.540;2023-03-02T09:50:29;102382.41;;;8.18
13304;BMP280;6720;51.958;4.540;2023-03-02T09:55:33;102370.34;;;8.78
13304;BMP280;6720;51.958;4.540;2023-03-02T09:58:02;102372.41;;;8.99
13304;BMP280;6720;51.958;4.540;2023-03-02T10:00:33;102375.09;;;7.98
13304;BMP280;6720;51.958;4.540;2023-03-02T10:03:14;102376.63;;;8.91
13304;BMP280;6720;51.958;4.540;2023-03-02T10:05:45;102367.09;;;8.93
13304;BMP280;6720;51.958;4.540;2023-03-02T10:08:14;102357.97;;;8.64
13304;BMP280;6720;51.958;4.540;2023-03-02T10:10:56;102372.88;;;8.71
13304;BMP280;6720;51.958;4.540;2023-03-02T10:13:28;102365.88;;;9.31
13304;BMP280;6720;51.958;4.540;2023-03-02T10:21:31;102355.19;;;9.84
13304;BMP280;6720;51.958;4.540;2023-03-02T10:33:14;102338.94;;;10.17
13304;BMP280;6720;51.958;4.540;2023-03-02T10:35:44;102330.63;;;10.69
13304;BMP280;6720;51.958;4.540;2023-03-02T10:38:16;102343.00;;;10.97
13304;BMP280;6720;51.958;4.540;2023-03-02T10:40:50;102346.47;;;10.90
13304;BMP280;6720;51.958;4.540;2023-03-02T10:43:30;102348.41;;;11.30
13304;BMP280;6720;51.958;4.540;2023-03-02T10:46:06;102344.03;;;11.30
13304;BMP280;6720;51.958;4.540;2023-03-02T10:48:57;102332.75;;;11.54
13304;BMP280;6720;51.958;4.540;2023-03-02T10:51:31;102329.16;;;11.28
13304;BMP280;6720;51.958;4.540;2023-03-02T10:54:10;102337.88;;;11.24
13304;BMP280;6720;51.958;4.540;2023-03-02T10:56:36;102339.66;;;11.22
13304;BMP280;6720;51.958;4.540;2023-03-02T11:02:13;102340.75;;;12.01
13304;BMP280;6720;51.958;4.540;2023-03-02T11:04:39;102345.16;;;12.17
13304;BMP280;6720;51.958;4.540;2023-03-02T11:07:27;102339.00;;;12.49
13304;BMP280;6720;51.958;4.540;2023-03-02T11:10:00;102332.03;;;12.08
13304;BMP280;6720;51.958;4.540;2023-03-02T11:12:26;102338.13;;;12.62
13304;BMP280;6720;51.958;4.540;2023-03-02T11:15:25;102338.13;;;12.77
13304;BMP280;6720;51.958;4.540;2023-03-02T11:17:59;102332.88;;;12.67
13304;BMP280;6720;51.958;4.540;2023-03-02T11:20:30;102320.63;;;12.58
13304;BMP280;6720;51.958;4.540;2023-03-02T11:23:09;102339.81;;;13.16
13304;BMP280;6720;51.958;4.540;2023-03-02T11:25:39;102341.63;;;12.70
13304;BMP280;6720;51.958;4.540;2023-03-02T11:28:15;102336.38;;;12.49
13304;BMP280;6720;51.958;4.540;2023-03-02T11:30:47;102336.31;;;11.61
13304;BMP280;6720;51.958;4.540;2023-03-02T11:33:22;102320.59;;;11.74
13304;BMP280;6720;51.958;4.540;2023-03-02T11:35:53;102332.88;;;11.98
13304;BMP280;6720;51.958;4.540;2023-03-02T11:38:32;102331.13;;;11.86
13304;BMP280;6720;51.958;4.540;2023-03-02T11:41:19;102323.28;;;12.40
13304;BMP280;6720;51.958;4.540;2023-03-02T11:43:51;102314.47;;;12.76
13304;BMP280;6720;51.958;4.540;2023-03-02T11:46:24;102324.88;;;13.19
13304;BMP280;6720;51.958;4.540;2023-03-02T11:48:53;102316.75;;;13.67
13304;BMP280;6720;51.958;4.540;2023-03-02T11:53:54;102317.50;;;13.81
13304;BMP280;6720;51.958;4.540;2023-03-02T11:56:22;102309.31;;;14.20
13304;BMP280;6720;51.958;4.540;2023-03-02T11:58:53;102315.63;;;14.00
13304;BMP280;6720;51.958;4.540;2023-03-02T12:01:21;102315.53;;;14.09
13304;BMP280;6720;51.958;4.540;2023-03-02T12:03:48;102311.19;;;14.06
13304;BMP280;6720;51.958;4.540;2023-03-02T12:08:43;102319.66;;;14.47
13304;BMP280;6720;51.958;4.540;2023-03-02T12:14:04;102317.25;;;14.23
13304;BMP280;6720;51.958;4.540;2023-03-02T12:16:42;102305.00;;;14.12
13304;BMP280;6720;51.958;4.540;2023-03-02T12:19:23;102315.13;;;14.63
13304;BMP280;6720;51.958;4.540;2023-03-02T12:21:59;102299.38;;;14.54
13304;BMP280;6720;51.958;4.540;2023-03-02T12:24:26;102292.19;;;14.71
13304;BMP280;6720;51.958;4.540;2023-03-02T12:27:06;102289.47;;;14.75
13304;BMP280;6720;51.958;4.540;2023-03-02T12:32:39;102298.53;;;14.50
13304;BMP280;6720;51.958;4.540;2023-03-02T12:35:08;102298.53;;;14.50
13304;BMP280;6720;51.958;4.540;2023-03-02T12:37:48;102287.72;;;14.74
13304;BMP280;6720;51.958;4.540;2023-03-02T12:54:18;102271.03;;;15.44
13304;BMP280;6720;51.958;4.540;2023-03-02T12:56:44;102265.66;;;15.53
13304;BMP280;6720;51.958;4.540;2023-03-02T12:59:25;102256.88;;;15.51
13304;BMP280;6720;51.958;4.540;2023-03-02T13:01:51;102256.66;;;15.64
13304;BMP280;6720;51.958;4.540;2023-03-02T13:04:27;102252.81;;;15.85
13304;BMP280;6720;51.958;4.540;2023-03-02T13:06:53;102241.44;;;15.81
13304;BMP280;6720;51.958;4.540;2023-03-02T13:09:19;102234.31;;;15.86
13304;BMP280;6720;51.958;4.540;2023-03-02T13:11:47;102238.81;;;15.80
13304;BMP280;6720;51.958;4.540;2023-03-02T13:14:31;102236.78;;;15.97
13304;BMP280;6720;51.958;4.540;2023-03-02T13:16:59;102239.19;;;16.10
13304;BMP280;6720;51.958;4.540;2023-03-02T13:19:27;102227.66;;;16.16
13304;BMP280;6720;51.958;4.540;2023-03-02T13:21:55;102220.22;;;16.36
13304;BMP280;6720;51.958;4.540;2023-03-02T13:24:44;102239.59;;;15.85
13304;BMP280;6720;51.958;4.540;2023-03-02T13:27:18;102219.78;;;16.13
13304;BMP280;6720;51.958;4.540;2023-03-02T13:29:44;102226.16;;;16.00
13304;BMP280;6720;51.958;4.540;2023-03-02T13:35:22;102201.28;;;16.13
13304;BMP280;6720;51.958;4.540;2023-03-02T13:38:05;102216.59;;;16.43
13304;BMP280;6720;51.958;4.540;2023-03-02T13:40:42;102212.84;;;16.53
13304;BMP280;6720;51.958;4.540;2023-03-02T13:43:34;102220.13;;;16.42
13304;BMP280;6720;51.958;4.540;2023-03-02T13:48:39;102215.25;;;16.18
13304;BMP280;6720;51.958;4.540;2023-03-02T13:51:16;102214.94;;;16.36
13304;BMP280;6720;51.958;4.540;2023-03-02T13:53:50;102209.53;;;16.42
13304;BMP280;6720;51.958;4.540;2023-03-02T13:56:17;102209.47;;;16.46
13304;BMP280;6720;51.958;4.540;2023-03-02T13:58:44;102213.13;;;16.38
13304;BMP280;6720;51.958;4.540;2023-03-02T14:01:11;102201.97;;;16.68
13304;BMP280;6720;51.958;4.540;2023-03-02T14:03:37;102210.59;;;16.77
13304;BMP280;6720;51.958;4.540;2023-03-02T14:06:02;102200.94;;;16.75
13304;BMP280;6720;51.958;4.540;2023-03-02T14:08:30;102199.22;;;16.74
13304;BMP280;6720;51.958;4.540;2023-03-02T14:10:57;102197.47;;;16.73
13304;BMP280;6720;51.958;4.540;2023-03-02T14:15:59;102196.13;;;16.95
13304;BMP280;6720;51.958;4.540;2023-03-02T14:18:30;102195.41;;;16.87
13304;BMP280;6720;51.958;4.540;2023-03-02T14:20:57;102186.38;;;16.56
13304;BMP280;6720;51.958;4.540;2023-03-02T14:23:24;102189.81;;;16.61
13304;BMP280;6720;51.958;4.540;2023-03-02T14:25:50;102187.09;;;16.17
13304;BMP280;6720;51.958;4.540;2023-03-02T14:28:22;102178.69;;;16.44
13304;BMP280;6720;51.958;4.540;2023-03-02T14:30:51;102175.97;;;16.47
13304;BMP280;6720;51.958;4.540;2023-03-02T14:33:19;102163.41;;;16.58
13304;BMP280;6720;51.958;4.540;2023-03-02T14:35:44;102186.38;;;16.56
13304;BMP280;6720;51.958;4.540;2023-03-02T14:38:10;102184.63;;;16.55
13304;BMP280;6720;51.958;4.540;2023-03-02T14:40:37;102185.66;;;16.46
13304;BMP280;6720;51.958;4.540;2023-03-02T14:43:02;102197.38;;;16.32
13304;BMP280;6720;51.958;4.540;2023-03-02T14:45:28;102183.56;;;16.18
13304;BMP280;6720;51.958;4.540;2023-03-02T14:47:53;102182.66;;;16.19
13304;BMP280;6720;51.958;4.540;2023-03-02T14:50:18;102180.69;;;15.83
13304;BMP280;6720;51.958;4.540;2023-03-02T14:52:47;102175.59;;;15.71
13304;BMP280;6720;51.958;4.540;2023-03-02T14:57:55;102186.09;;;15.74
13304;BMP280;6720;51.958;4.540;2023-03-02T15:00:22;102167.34;;;15.36
13304;BMP280;6720;51.958;4.540;2023-03-02T15:02:47;102167.78;;;15.65
13304;BMP280;6720;51.958;4.540;2023-03-02T15:05:13;102167.22;;;15.45
13304;BMP280;6720;51.958;4.540;2023-03-02T15:07:38;102167.34;;;15.37
13304;BMP280;6720;51.958;4.540;2023-03-02T15:10:06;102162.97;;;15.36
13304;BMP280;6720;51.958;4.540;2023-03-02T15:12:32;102171.88;;;15.25
13304;BMP280;6720;51.958;4.540;2023-03-02T15:14:58;102157.84;;;15.24
13304;BMP280;6720;51.958;4.540;2023-03-02T15:17:24;102171.00;;;15.26
13304;BMP280;6720;51.958;4.540;2023-03-02T15:19:50;102144.75;;;15.17
13304;BMP280;6720;51.958;4.540;2023-03-02T15:22:16;102149.91;;;15.26
13304;BMP280;6720;51.958;4.540;2023-03-02T15:24:41;102161.22;;;15.35
13304;BMP280;6720;51.958;4.540;2023-03-02T15:27:08;102162.16;;;15.30
13304;BMP280;6720;51.958;4.540;2023-03-02T15:29:34;102162.06;;;15.36
13304;BMP280;6720;51.958;4.540;2023-03-02T15:31:59;102160.31;;;15.35
13304;BMP280;6720;51.958;4.540;2023-03-02T15:34:24;102159.13;;;15.55
13304;BMP280;6720;51.958;4.540;2023-03-02T15:36:50;102157.66;;;15.38